sensor_id;sensor_type;location;lat;lon;timestamp;temperature;humidity
69533;DHT22;56729;52.036;5.332;2022-12-07T00:00:19;4.10;99.90
69533;DHT22;56729;52.036;5.332;2022-12-07T00:01:24;4.10;99.90
69533;DHT22;56729;52.036;5.332;2022-12-07T00:02:26;4.10;99.90
69533;DHT22;56729;52.036;5.332;2022-12-07T00:03:28;4.10;99.90
69533;DHT22;56729;52.036;5.332;2022-12-07T00:04:30;4.10;99.90
69533;DHT22;56729;52.036;5.332;2022-12-07T00:05:32;4.20;99.90
69533;DHT22;56729;52.036;5.332;2022-12-07T00:06:39;4.20;99.90
69533;DHT22;56729;52.036;5.332;2022-12-07T00:07:42;4.20;99.90
69533;DHT22;56729;52.036;5.332;2022-12-07T00:08:45;4.20;99.90
69533;DHT22;56729;52.036;5.332;2022-12-07T00:09:47;4.20;99.90
69533;DHT22;56729;52.036;5.332;2022-12-07T00:10:49;4.20;99.90
69533;DHT22;56729;52.036;5.332;2022-12-07T00:11:51;4.20;99.90
69533;DHT22;56729;52.036;5.332;2022-12-07T00:12:53;4.30;99.90
69533;DHT22;56729;52.036;5.332;2022-12-07T00:13:57;4.30;99.90
69533;DHT22;56729;52.036;5.332;2022-12-07T00:15:00;4.30;99.90
69533;DHT22;56729;52.036;5.332;2022-12-07T00:16:26;4.30;99.90
69533;DHT22;56729;52.036;5.332;2022-12-07T00:17:26;4.30;99.90
69533;DHT22;56729;52.036;5.332;2022-12-07T00:18:28;4.30;99.90
69533;DHT22;56729;52.036;5.332;2022-12-07T00:19:30;4.30;99.90
69533;DHT22;56729;52.036;5.332;2022-12-07T00:20:32;4.20;99.90
69533;DHT22;56729;52.036;5.332;2022-12-07T00:21:35;4.20;99.90
69533;DHT22;56729;52.036;5.332;2022-12-07T00:22:37;4.20;99.90
69533;DHT22;56729;52.036;5.332;2022-12-07T00:23:39;4.20;99.90
69533;DHT22;56729;52.036;5.332;2022-12-07T00:24:42;4.20;99.90
69533;DHT22;56729;52.036;5.332;2022-12-07T00:25:44;4.20;99.90
69533;DHT22;56729;52.036;5.332;2022-12-07T00:26:45;4.10;99.90
69533;DHT22;56729;52.036;5.332;2022-12-07T00:27:47;4.10;99.90
69533;DHT22;56729;52.036;5.332;2022-12-07T00:28:54;4.10;99.90
69533;DHT22;56729;52.036;5.332;2022-12-07T00:29:56;4.10;99.90
69533;DHT22;56729;52.036;5.332;2022-12-07T00:31:06;4.10;99.90
69533;DHT22;56729;52.036;5.332;2022-12-07T00:32:09;4.00;99.90
69533;DHT22;56729;52.036;5.332;2022-12-07T00:33:10;4.00;99.90
69533;DHT22;56729;52.036;5.332;2022-12-07T00:34:18;4.00;99.90
69533;DHT22;56729;52.036;5.332;2022-12-07T00:35:21;4.00;99.90
69533;DHT22;56729;52.036;5.332;2022-12-07T00:36:24;4.00;99.90
69533;DHT22;56729;52.036;5.332;2022-12-07T00:37:28;4.00;99.90
69533;DHT22;56729;52.036;5.332;2022-12-07T00:38:31;4.00;99.90
69533;DHT22;56729;52.036;5.332;2022-12-07T00:39:33;4.00;99.90
69533;DHT22;56729;52.036;5.332;2022-12-07T00:40:34;4.00;99.90
69533;DHT22;56729;52.036;5.332;2022-12-07T00:41:36;3.90;99.90
69533;DHT22;56729;52.036;5.332;2022-12-07T00:42:38;3.90;99.90
69533;DHT22;56729;52.036;5.332;2022-12-07T00:43:41;3.90;99.90
69533;DHT22;56729;52.036;5.332;2022-12-07T00:44:43;3.90;99.90
69533;DHT22;56729;52.036;5.332;2022-12-07T00:45:45;3.80;99.90
69533;DHT22;56729;52.036;5.332;2022-12-07T00:46:47;3.90;99.90
69533;DHT22;56729;52.036;5.332;2022-12-07T00:47:49;3.80;99.90
69533;DHT22;56729;52.036;5.332;2022-12-07T00:48:51;3.80;99.90
69533;DHT22;56729;52.036;5.332;2022-12-07T00:49:53;3.80;99.90
69533;DHT22;56729;52.036;5.332;2022-12-07T00:50:55;3.80;99.90
69533;DHT22;56729;52.036;5.332;2022-12-07T00:51:57;3.70;99.90
69533;DHT22;56729;52.036;5.332;2022-12-07T00:52:59;3.70;99.90
69533;DHT22;56729;52.036;5.332;2022-12-07T00:54:01;3.70;99.90
69533;DHT22;56729;52.036;5.332;2022-12-07T00:55:04;3.60;99.90
69533;DHT22;56729;52.036;5.332;2022-12-07T00:56:16;3.60;99.90
69533;DHT22;56729;52.036;5.332;2022-12-07T00:57:18;3.60;99.90
69533;DHT22;56729;52.036;5.332;2022-12-07T00:58:20;3.60;99.90
69533;DHT22;56729;52.036;5.332;2022-12-07T00:59:22;3.60;99.90
69533;DHT22;56729;52.036;5.332;2022-12-07T01:00:24;3.50;99.90
69533;DHT22;56729;52.036;5.332;2022-12-07T01:01:29;3.50;99.90
69533;DHT22;56729;52.036;5.332;2022-12-07T01:02:31;3.50;99.90
69533;DHT22;56729;52.036;5.332;2022-12-07T01:03:34;3.50;99.90
69533;DHT22;56729;52.036;5.332;2022-12-07T01:04:36;3.50;99.90
69533;DHT22;56729;52.036;5.332;2022-12-07T01:05:38;3.50;99.90
69533;DHT22;56729;52.036;5.332;2022-12-07T01:06:40;3.50;99.90
69533;DHT22;56729;52.036;5.332;2022-12-07T01:07:42;3.50;99.90
69533;DHT22;56729;52.036;5.332;2022-12-07T01:08:44;3.50;99.90
69533;DHT22;56729;52.036;5.332;2022-12-07T01:09:46;3.50;99.90
69533;DHT22;56729;52.036;5.332;2022-12-07T01:10:48;3.50;99.90
69533;DHT22;56729;52.036;5.332;2022-12-07T01:11:50;3.50;99.90
69533;DHT22;56729;52.036;5.332;2022-12-07T01:12:52;3.50;99.90
69533;DHT22;56729;52.036;5.332;2022-12-07T01:13:55;3.50;99.90
69533;DHT22;56729;52.036;5.332;2022-12-07T01:14:58;3.50;99.90
69533;DHT22;56729;52.036;5.332;2022-12-07T01:16:02;3.50;99.90
69533;DHT22;56729;52.036;5.332;2022-12-07T01:17:04;3.50;99.90
69533;DHT22;56729;52.036;5.332;2022-12-07T01:18:06;3.50;99.90
69533;DHT22;56729;52.036;5.332;2022-12-07T01:19:08;3.50;99.90
69533;DHT22;56729;52.036;5.332;2022-12-07T01:20:10;3.50;99.90
69533;DHT22;56729;52.036;5.332;2022-12-07T01:21:15;3.50;99.90
69533;DHT22;56729;52.036;5.332;2022-12-07T01:22:17;3.50;99.90
69533;DHT22;56729;52.036;5.332;2022-12-07T01:23:19;3.50;99.90
69533;DHT22;56729;52.036;5.332;2022-12-07T01:24:20;3.40;99.90
69533;DHT22;56729;52.036;5.332;2022-12-07T01:25:22;3.40;99.90
69533;DHT22;56729;52.036;5.332;2022-12-07T01:26:25;3.40;99.90
69533;DHT22;56729;52.036;5.332;2022-12-07T01:27:27;3.40;99.90
69533;DHT22;56729;52.036;5.332;2022-12-07T01:28:29;3.40;99.90
69533;DHT22;56729;52.036;5.332;2022-12-07T01:29:31;3.40;99.90
69533;DHT22;56729;52.036;5.332;2022-12-07T01:30:32;3.40;99.90
69533;DHT22;56729;52.036;5.332;2022-12-07T01:31:34;3.40;99.90
69533;DHT22;56729;52.036;5.332;2022-12-07T01:32:36;3.30;99.90
69533;DHT22;56729;52.036;5.332;2022-12-07T01:33:39;3.30;99.90
69533;DHT22;56729;52.036;5.332;2022-12-07T01:34:41;3.30;99.90
69533;DHT22;56729;52.036;5.332;2022-12-07T01:35:42;3.20;99.90
69533;DHT22;56729;52.036;5.332;2022-12-07T01:36:44;3.20;99.90
69533;DHT22;56729;52.036;5.332;2022-12-07T01:37:46;3.20;99.90
69533;DHT22;56729;52.036;5.332;2022-12-07T01:38:50;3.10;99.90
69533;DHT22;56729;52.036;5.332;2022-12-07T01:39:54;3.10;99.90
69533;DHT22;56729;52.036;5.332;2022-12-07T01:40:57;3.10;99.90
69533;DHT22;56729;52.036;5.332;2022-12-07T01:41:59;3.00;99.90
69533;DHT22;56729;52.036;5.332;2022-12-07T01:43:01;3.00;99.90
69533;DHT22;56729;52.036;5.332;2022-12-07T01:44:22;3.00;99.90
69533;DHT22;56729;52.036;5.332;2022-12-07T01:46:32;2.90;99.90
69533;DHT22;56729;52.036;5.332;2022-12-07T01:47:34;2.90;99.90
69533;DHT22;56729;52.036;5.332;2022-12-07T01:48:40;2.90;99.90
69533;DHT22;56729;52.036;5.332;2022-12-07T01:49:46;2.90;99.90
69533;DHT22;56729;52.036;5.332;2022-12-07T01:50:50;2.90;99.90
69533;DHT22;56729;52.036;5.332;2022-12-07T01:52:01;2.90;99.90
69533;DHT22;56729;52.036;5.332;2022-12-07T01:53:05;2.90;99.90
69533;DHT22;56729;52.036;5.332;2022-12-07T01:54:10;2.90;99.90
69533;DHT22;56729;52.036;5.332;2022-12-07T01:55:15;2.90;99.90
69533;DHT22;56729;52.036;5.332;2022-12-07T01:56:21;2.80;99.90
69533;DHT22;56729;52.036;5.332;2022-12-07T01:57:25;2.80;99.90
69533;DHT22;56729;52.036;5.332;2022-12-07T01:58:28;2.80;99.90
69533;DHT22;56729;52.036;5.332;2022-12-07T01:59:30;2.80;99.90
69533;DHT22;56729;52.036;5.332;2022-12-07T02:00:32;2.80;99.90
69533;DHT22;56729;52.036;5.332;2022-12-07T02:01:34;2.80;99.90
69533;DHT22;56729;52.036;5.332;2022-12-07T02:03:58;2.70;99.90
69533;DHT22;56729;52.036;5.332;2022-12-07T02:05:03;2.70;99.90
69533;DHT22;56729;52.036;5.332;2022-12-07T02:06:07;2.70;99.90
69533;DHT22;56729;52.036;5.332;2022-12-07T02:07:11;2.70;99.90
69533;DHT22;56729;52.036;5.332;2022-12-07T02:08:14;2.60;99.90
69533;DHT22;56729;52.036;5.332;2022-12-07T02:09:16;2.60;99.90
69533;DHT22;56729;52.036;5.332;2022-12-07T02:10:21;2.60;99.90
69533;DHT22;56729;52.036;5.332;2022-12-07T02:11:23;2.60;99.90
69533;DHT22;56729;52.036;5.332;2022-12-07T02:12:25;2.60;99.90
69533;DHT22;56729;52.036;5.332;2022-12-07T02:13:30;2.60;99.90
69533;DHT22;56729;52.036;5.332;2022-12-07T02:14:33;2.60;99.90
69533;DHT22;56729;52.036;5.332;2022-12-07T02:27:46;2.50;99.90
69533;DHT22;56729;52.036;5.332;2022-12-07T02:29:14;2.50;99.90
69533;DHT22;56729;52.036;5.332;2022-12-07T02:30:20;2.50;99.90
69533;DHT22;56729;52.036;5.332;2022-12-07T02:31:23;2.50;99.90
69533;DHT22;56729;52.036;5.332;2022-12-07T02:33:50;2.40;99.90
69533;DHT22;56729;52.036;5.332;2022-12-07T02:34:58;2.40;99.90
69533;DHT22;56729;52.036;5.332;2022-12-07T02:36:24;2.40;99.90
69533;DHT22;56729;52.036;5.332;2022-12-07T02:37:35;2.40;99.90
69533;DHT22;56729;52.036;5.332;2022-12-07T02:38:51;2.30;99.90
69533;DHT22;56729;52.036;5.332;2022-12-07T02:40:19;2.30;99.90
69533;DHT22;56729;52.036;5.332;2022-12-07T02:41:50;2.40;99.90
69533;DHT22;56729;52.036;5.332;2022-12-07T02:43:14;2.40;99.90
69533;DHT22;56729;52.036;5.332;2022-12-07T02:44:21;2.40;99.90
69533;DHT22;56729;52.036;5.332;2022-12-07T02:45:26;2.40;99.90
69533;DHT22;56729;52.036;5.332;2022-12-07T02:46:33;2.40;99.90
69533;DHT22;56729;52.036;5.332;2022-12-07T02:47:37;2.40;99.90
69533;DHT22;56729;52.036;5.332;2022-12-07T02:48:41;2.40;99.90
69533;DHT22;56729;52.036;5.332;2022-12-07T02:49:44;2.40;99.90
69533;DHT22;56729;52.036;5.332;2022-12-07T02:50:50;2.40;99.90
69533;DHT22;56729;52.036;5.332;2022-12-07T02:51:53;2.40;99.90
69533;DHT22;56729;52.036;5.332;2022-12-07T02:52:56;2.40;99.90
69533;DHT22;56729;52.036;5.332;2022-12-07T02:53:58;2.40;99.90
69533;DHT22;56729;52.036;5.332;2022-12-07T02:55:00;2.40;99.90
69533;DHT22;56729;52.036;5.332;2022-12-07T02:57:59;2.50;99.90
69533;DHT22;56729;52.036;5.332;2022-12-07T03:00:23;2.60;99.90
69533;DHT22;56729;52.036;5.332;2022-12-07T03:02:01;2.60;99.90
69533;DHT22;56729;52.036;5.332;2022-12-07T03:03:10;2.60;99.90
69533;DHT22;56729;52.036;5.332;2022-12-07T03:06:07;2.70;99.90
69533;DHT22;56729;52.036;5.332;2022-12-07T03:08:52;2.70;99.90
69533;DHT22;56729;52.036;5.332;2022-12-07T03:11:25;2.70;99.90
69533;DHT22;56729;52.036;5.332;2022-12-07T03:12:44;2.70;99.90
69533;DHT22;56729;52.036;5.332;2022-12-07T03:14:01;2.70;99.90
69533;DHT22;56729;52.036;5.332;2022-12-07T03:15:15;2.60;99.90
69533;DHT22;56729;52.036;5.332;2022-12-07T03:16:25;2.60;99.90
69533;DHT22;56729;52.036;5.332;2022-12-07T03:17:32;2.60;99.90
69533;DHT22;56729;52.036;5.332;2022-12-07T03:18:39;2.60;99.90
69533;DHT22;56729;52.036;5.332;2022-12-07T03:19:43;2.70;99.90
69533;DHT22;56729;52.036;5.332;2022-12-07T03:20:48;2.70;99.90
69533;DHT22;56729;52.036;5.332;2022-12-07T03:21:57;2.70;99.90
69533;DHT22;56729;52.036;5.332;2022-12-07T03:22:59;2.70;99.90
69533;DHT22;56729;52.036;5.332;2022-12-07T03:24:06;2.70;99.90
69533;DHT22;56729;52.036;5.332;2022-12-07T03:25:11;2.70;99.90
69533;DHT22;56729;52.036;5.332;2022-12-07T03:26:17;2.70;99.90
69533;DHT22;56729;52.036;5.332;2022-12-07T03:27:41;2.70;99.90
69533;DHT22;56729;52.036;5.332;2022-12-07T03:28:51;2.70;99.90
69533;DHT22;56729;52.036;5.332;2022-12-07T03:30:08;2.70;99.90
69533;DHT22;56729;52.036;5.332;2022-12-07T03:31:17;2.70;99.90
69533;DHT22;56729;52.036;5.332;2022-12-07T03:32:30;2.60;99.90
69533;DHT22;56729;52.036;5.332;2022-12-07T03:33:44;2.60;99.90
69533;DHT22;56729;52.036;5.332;2022-12-07T03:36:15;2.70;99.90
69533;DHT22;56729;52.036;5.332;2022-12-07T03:37:26;2.70;99.90
69533;DHT22;56729;52.036;5.332;2022-12-07T03:38:45;2.70;99.90
69533;DHT22;56729;52.036;5.332;2022-12-07T03:40:13;2.70;99.90
69533;DHT22;56729;52.036;5.332;2022-12-07T03:41:36;2.80;99.90
69533;DHT22;56729;52.036;5.332;2022-12-07T03:42:46;2.70;99.90
69533;DHT22;56729;52.036;5.332;2022-12-07T03:43:48;2.80;99.90
69533;DHT22;56729;52.036;5.332;2022-12-07T03:44:51;2.80;99.90
69533;DHT22;56729;52.036;5.332;2022-12-07T03:46:05;2.80;99.90
69533;DHT22;56729;52.036;5.332;2022-12-07T03:47:13;2.80;99.90
69533;DHT22;56729;52.036;5.332;2022-12-07T03:49:48;2.80;99.90
69533;DHT22;56729;52.036;5.332;2022-12-07T03:52:40;2.80;99.90
69533;DHT22;56729;52.036;5.332;2022-12-07T03:53:48;2.80;99.90
69533;DHT22;56729;52.036;5.332;2022-12-07T03:54:56;2.80;99.90
69533;DHT22;56729;52.036;5.332;2022-12-07T03:56:00;2.80;99.90
69533;DHT22;56729;52.036;5.332;2022-12-07T03:57:04;2.80;99.90
69533;DHT22;56729;52.036;5.332;2022-12-07T03:58:14;2.80;99.90
69533;DHT22;56729;52.036;5.332;2022-12-07T03:59:17;2.90;99.90
69533;DHT22;56729;52.036;5.332;2022-12-07T04:00:19;2.80;99.90
69533;DHT22;56729;52.036;5.332;2022-12-07T04:01:23;2.90;99.90
69533;DHT22;56729;52.036;5.332;2022-12-07T04:02:27;2.80;99.90
69533;DHT22;56729;52.036;5.332;2022-12-07T04:03:30;2.90;99.90
69533;DHT22;56729;52.036;5.332;2022-12-07T04:04:32;2.90;99.90
69533;DHT22;56729;52.036;5.332;2022-12-07T04:05:34;2.90;99.90
69533;DHT22;56729;52.036;5.332;2022-12-07T04:06:36;2.90;99.90
69533;DHT22;56729;52.036;5.332;2022-12-07T04:07:38;2.90;99.90
69533;DHT22;56729;52.036;5.332;2022-12-07T04:08:41;2.90;99.90
69533;DHT22;56729;52.036;5.332;2022-12-07T04:09:43;2.90;99.90
69533;DHT22;56729;52.036;5.332;2022-12-07T04:10:45;2.90;99.90
69533;DHT22;56729;52.036;5.332;2022-12-07T04:11:47;3.00;99.90
69533;DHT22;56729;52.036;5.332;2022-12-07T04:12:49;2.90;99.90
69533;DHT22;56729;52.036;5.332;2022-12-07T04:13:51;2.90;99.90
69533;DHT22;56729;52.036;5.332;2022-12-07T04:15:11;3.00;99.90
69533;DHT22;56729;52.036;5.332;2022-12-07T04:16:13;2.90;99.90
69533;DHT22;56729;52.036;5.332;2022-12-07T04:17:15;2.90;99.90
69533;DHT22;56729;52.036;5.332;2022-12-07T04:18:17;2.90;99.90
69533;DHT22;56729;52.036;5.332;2022-12-07T04:19:23;2.90;99.90
69533;DHT22;56729;52.036;5.332;2022-12-07T04:20:26;2.90;99.90
69533;DHT22;56729;52.036;5.332;2022-12-07T04:21:28;2.90;99.90
69533;DHT22;56729;52.036;5.332;2022-12-07T04:22:31;2.90;99.90
69533;DHT22;56729;52.036;5.332;2022-12-07T04:23:33;2.90;99.90
69533;DHT22;56729;52.036;5.332;2022-12-07T04:24:35;2.80;99.90
69533;DHT22;56729;52.036;5.332;2022-12-07T04:25:37;2.80;99.90
69533;DHT22;56729;52.036;5.332;2022-12-07T04:26:40;2.80;99.90
69533;DHT22;56729;52.036;5.332;2022-12-07T04:27:41;2.80;99.90
69533;DHT22;56729;52.036;5.332;2022-12-07T04:28:43;2.80;99.90
69533;DHT22;56729;52.036;5.332;2022-12-07T04:29:45;2.80;99.90
69533;DHT22;56729;52.036;5.332;2022-12-07T04:30:47;2.80;99.90
69533;DHT22;56729;52.036;5.332;2022-12-07T04:31:49;2.80;99.90
69533;DHT22;56729;52.036;5.332;2022-12-07T04:32:52;2.80;99.90
69533;DHT22;56729;52.036;5.332;2022-12-07T04:33:54;2.80;99.90
69533;DHT22;56729;52.036;5.332;2022-12-07T04:34:56;2.80;99.90
69533;DHT22;56729;52.036;5.332;2022-12-07T04:35:58;2.80;99.90
69533;DHT22;56729;52.036;5.332;2022-12-07T04:37:00;2.70;99.90
69533;DHT22;56729;52.036;5.332;2022-12-07T04:38:02;2.70;99.90
69533;DHT22;56729;52.036;5.332;2022-12-07T04:39:06;2.70;99.90
69533;DHT22;56729;52.036;5.332;2022-12-07T04:40:08;2.70;99.90
69533;DHT22;56729;52.036;5.332;2022-12-07T04:41:12;2.70;99.90
69533;DHT22;56729;52.036;5.332;2022-12-07T04:42:14;2.70;99.90
69533;DHT22;56729;52.036;5.332;2022-12-07T04:43:16;2.70;99.90
69533;DHT22;56729;52.036;5.332;2022-12-07T04:44:18;2.70;99.90
69533;DHT22;56729;52.036;5.332;2022-12-07T04:45:21;2.70;99.90
69533;DHT22;56729;52.036;5.332;2022-12-07T04:46:24;2.70;99.90
69533;DHT22;56729;52.036;5.332;2022-12-07T04:47:27;2.70;99.90
69533;DHT22;56729;52.036;5.332;2022-12-07T04:48:29;2.60;99.90
69533;DHT22;56729;52.036;5.332;2022-12-07T04:49:31;2.60;99.90
69533;DHT22;56729;52.036;5.332;2022-12-07T04:50:35;2.60;99.90
69533;DHT22;56729;52.036;5.332;2022-12-07T04:51:37;2.60;99.90
69533;DHT22;56729;52.036;5.332;2022-12-07T04:52:39;2.60;99.90
69533;DHT22;56729;52.036;5.332;2022-12-07T04:53:40;2.60;99.90
69533;DHT22;56729;52.036;5.332;2022-12-07T04:54:42;2.60;99.90
69533;DHT22;56729;52.036;5.332;2022-12-07T04:55:45;2.60;99.90
69533;DHT22;56729;52.036;5.332;2022-12-07T04:56:47;2.60;99.90
69533;DHT22;56729;52.036;5.332;2022-12-07T04:57:49;2.60;99.90
69533;DHT22;56729;52.036;5.332;2022-12-07T04:58:52;2.60;99.90
69533;DHT22;56729;52.036;5.332;2022-12-07T04:59:55;2.60;99.90
69533;DHT22;56729;52.036;5.332;2022-12-07T05:00:56;2.60;99.90
69533;DHT22;56729;52.036;5.332;2022-12-07T05:01:59;2.60;99.90
69533;DHT22;56729;52.036;5.332;2022-12-07T05:03:01;2.60;99.90
69533;DHT22;56729;52.036;5.332;2022-12-07T05:04:03;2.60;99.90
69533;DHT22;56729;52.036;5.332;2022-12-07T05:05:05;2.50;99.90
69533;DHT22;56729;52.036;5.332;2022-12-07T05:06:08;2.50;99.90
69533;DHT22;56729;52.036;5.332;2022-12-07T05:07:14;2.50;99.90
69533;DHT22;56729;52.036;5.332;2022-12-07T05:08:16;2.40;99.90
69533;DHT22;56729;52.036;5.332;2022-12-07T05:09:18;2.40;99.90
69533;DHT22;56729;52.036;5.332;2022-12-07T05:10:20;2.40;99.90
69533;DHT22;56729;52.036;5.332;2022-12-07T05:11:22;2.40;99.90
69533;DHT22;56729;52.036;5.332;2022-12-07T05:12:42;2.40;99.90
69533;DHT22;56729;52.036;5.332;2022-12-07T05:13:44;2.50;99.90
69533;DHT22;56729;52.036;5.332;2022-12-07T05:14:45;2.50;99.90
69533;DHT22;56729;52.036;5.332;2022-12-07T05:15:48;2.50;99.90
69533;DHT22;56729;52.036;5.332;2022-12-07T05:16:50;2.50;99.90
69533;DHT22;56729;52.036;5.332;2022-12-07T05:17:53;2.50;99.90
69533;DHT22;56729;52.036;5.332;2022-12-07T05:18:55;2.50;99.90
69533;DHT22;56729;52.036;5.332;2022-12-07T05:19:56;2.60;99.90
69533;DHT22;56729;52.036;5.332;2022-12-07T05:20:58;2.60;99.90
69533;DHT22;56729;52.036;5.332;2022-12-07T05:22:00;2.60;99.90
69533;DHT22;56729;52.036;5.332;2022-12-07T05:23:02;2.60;99.90
69533;DHT22;56729;52.036;5.332;2022-12-07T05:24:06;2.60;99.90
69533;DHT22;56729;52.036;5.332;2022-12-07T05:25:08;2.60;99.90
69533;DHT22;56729;52.036;5.332;2022-12-07T05:26:10;2.60;99.90
69533;DHT22;56729;52.036;5.332;2022-12-07T05:27:12;2.60;99.90
69533;DHT22;56729;52.036;5.332;2022-12-07T05:28:14;2.60;99.90
69533;DHT22;56729;52.036;5.332;2022-12-07T05:29:17;2.60;99.90
69533;DHT22;56729;52.036;5.332;2022-12-07T05:30:19;2.60;99.90
69533;DHT22;56729;52.036;5.332;2022-12-07T05:31:21;2.60;99.90
69533;DHT22;56729;52.036;5.332;2022-12-07T05:32:23;2.60;99.90
69533;DHT22;56729;52.036;5.332;2022-12-07T05:33:25;2.60;99.90
69533;DHT22;56729;52.036;5.332;2022-12-07T05:34:27;2.50;99.90
69533;DHT22;56729;52.036;5.332;2022-12-07T05:35:29;2.50;99.90
69533;DHT22;56729;52.036;5.332;2022-12-07T05:36:31;2.50;99.90
69533;DHT22;56729;52.036;5.332;2022-12-07T05:37:33;2.60;99.90
69533;DHT22;56729;52.036;5.332;2022-12-07T05:38:35;2.60;99.90
69533;DHT22;56729;52.036;5.332;2022-12-07T05:39:37;2.60;99.90
69533;DHT22;56729;52.036;5.332;2022-12-07T05:40:42;2.60;99.90
69533;DHT22;56729;52.036;5.332;2022-12-07T05:41:44;2.60;99.90
69533;DHT22;56729;52.036;5.332;2022-12-07T05:43:04;2.60;99.90
69533;DHT22;56729;52.036;5.332;2022-12-07T05:44:07;2.60;99.90
69533;DHT22;56729;52.036;5.332;2022-12-07T05:45:09;2.60;99.90
69533;DHT22;56729;52.036;5.332;2022-12-07T05:46:11;2.60;99.90
69533;DHT22;56729;52.036;5.332;2022-12-07T05:47:14;2.60;99.90
69533;DHT22;56729;52.036;5.332;2022-12-07T05:48:17;2.60;99.90
69533;DHT22;56729;52.036;5.332;2022-12-07T05:49:19;2.60;99.90
69533;DHT22;56729;52.036;5.332;2022-12-07T05:50:20;2.60;99.90
69533;DHT22;56729;52.036;5.332;2022-12-07T05:51:34;2.60;99.90
69533;DHT22;56729;52.036;5.332;2022-12-07T05:52:36;2.60;99.90
69533;DHT22;56729;52.036;5.332;2022-12-07T05:53:38;2.60;99.90
69533;DHT22;56729;52.036;5.332;2022-12-07T05:54:40;2.60;99.90
69533;DHT22;56729;52.036;5.332;2022-12-07T05:55:42;2.50;99.90
69533;DHT22;56729;52.036;5.332;2022-12-07T05:56:43;2.50;99.90
69533;DHT22;56729;52.036;5.332;2022-12-07T05:57:45;2.50;99.90
69533;DHT22;56729;52.036;5.332;2022-12-07T05:59:09;2.50;99.90
69533;DHT22;56729;52.036;5.332;2022-12-07T06:00:26;2.50;99.90
69533;DHT22;56729;52.036;5.332;2022-12-07T06:01:28;2.50;99.90
69533;DHT22;56729;52.036;5.332;2022-12-07T06:02:30;2.50;99.90
69533;DHT22;56729;52.036;5.332;2022-12-07T06:03:32;2.50;99.90
69533;DHT22;56729;52.036;5.332;2022-12-07T06:04:38;2.50;99.90
69533;DHT22;56729;52.036;5.332;2022-12-07T06:05:39;2.50;99.90
69533;DHT22;56729;52.036;5.332;2022-12-07T06:06:41;2.50;99.90
69533;DHT22;56729;52.036;5.332;2022-12-07T06:07:43;2.50;99.90
69533;DHT22;56729;52.036;5.332;2022-12-07T06:08:45;2.50;99.90
69533;DHT22;56729;52.036;5.332;2022-12-07T06:09:48;2.50;99.90
69533;DHT22;56729;52.036;5.332;2022-12-07T06:10:50;2.40;99.90
69533;DHT22;56729;52.036;5.332;2022-12-07T06:12:12;2.50;99.90
69533;DHT22;56729;52.036;5.332;2022-12-07T06:13:32;2.40;99.90
69533;DHT22;56729;52.036;5.332;2022-12-07T06:14:34;2.40;99.90
69533;DHT22;56729;52.036;5.332;2022-12-07T06:15:36;2.40;99.90
69533;DHT22;56729;52.036;5.332;2022-12-07T06:16:39;2.40;99.90
69533;DHT22;56729;52.036;5.332;2022-12-07T06:17:41;2.40;99.90
69533;DHT22;56729;52.036;5.332;2022-12-07T06:18:42;2.40;99.90
69533;DHT22;56729;52.036;5.332;2022-12-07T06:19:44;2.40;99.90
69533;DHT22;56729;52.036;5.332;2022-12-07T06:20:46;2.40;99.90
69533;DHT22;56729;52.036;5.332;2022-12-07T06:21:48;2.30;99.90
69533;DHT22;56729;52.036;5.332;2022-12-07T06:22:50;2.40;99.90
69533;DHT22;56729;52.036;5.332;2022-12-07T06:23:52;2.30;99.90
69533;DHT22;56729;52.036;5.332;2022-12-07T06:24:54;2.30;99.90
69533;DHT22;56729;52.036;5.332;2022-12-07T06:25:56;2.30;99.90
69533;DHT22;56729;52.036;5.332;2022-12-07T06:26:58;2.30;99.90
69533;DHT22;56729;52.036;5.332;2022-12-07T06:28:00;2.30;99.90
69533;DHT22;56729;52.036;5.332;2022-12-07T06:29:02;2.30;99.90
69533;DHT22;56729;52.036;5.332;2022-12-07T06:30:04;2.30;99.90
69533;DHT22;56729;52.036;5.332;2022-12-07T06:31:08;2.30;99.90
69533;DHT22;56729;52.036;5.332;2022-12-07T06:32:14;2.30;99.90
69533;DHT22;56729;52.036;5.332;2022-12-07T06:33:17;2.30;99.90
69533;DHT22;56729;52.036;5.332;2022-12-07T06:34:20;2.30;99.90
69533;DHT22;56729;52.036;5.332;2022-12-07T06:35:24;2.30;99.90
69533;DHT22;56729;52.036;5.332;2022-12-07T06:36:26;2.20;99.90
69533;DHT22;56729;52.036;5.332;2022-12-07T06:37:28;2.20;99.90
69533;DHT22;56729;52.036;5.332;2022-12-07T06:38:30;2.30;99.90
69533;DHT22;56729;52.036;5.332;2022-12-07T06:39:31;2.20;99.90
69533;DHT22;56729;52.036;5.332;2022-12-07T06:40:33;2.20;99.90
69533;DHT22;56729;52.036;5.332;2022-12-07T06:41:38;2.20;99.90
69533;DHT22;56729;52.036;5.332;2022-12-07T06:42:40;2.20;99.90
69533;DHT22;56729;52.036;5.332;2022-12-07T06:43:42;2.20;99.90
69533;DHT22;56729;52.036;5.332;2022-12-07T06:44:44;2.20;99.90
69533;DHT22;56729;52.036;5.332;2022-12-07T06:45:46;2.20;99.90
69533;DHT22;56729;52.036;5.332;2022-12-07T06:46:49;2.20;99.90
69533;DHT22;56729;52.036;5.332;2022-12-07T06:47:51;2.20;99.90
69533;DHT22;56729;52.036;5.332;2022-12-07T06:48:53;2.30;99.90
69533;DHT22;56729;52.036;5.332;2022-12-07T06:49:55;2.30;99.90
69533;DHT22;56729;52.036;5.332;2022-12-07T06:50:57;2.30;99.90
69533;DHT22;56729;52.036;5.332;2022-12-07T06:51:59;2.30;99.90
69533;DHT22;56729;52.036;5.332;2022-12-07T06:53:01;2.30;99.90
69533;DHT22;56729;52.036;5.332;2022-12-07T06:54:04;2.30;99.90
69533;DHT22;56729;52.036;5.332;2022-12-07T06:55:06;2.30;99.90
69533;DHT22;56729;52.036;5.332;2022-12-07T06:56:08;2.30;99.90
69533;DHT22;56729;52.036;5.332;2022-12-07T06:57:10;2.30;99.90
69533;DHT22;56729;52.036;5.332;2022-12-07T06:58:12;2.30;99.90
69533;DHT22;56729;52.036;5.332;2022-12-07T06:59:15;2.30;99.90
69533;DHT22;56729;52.036;5.332;2022-12-07T07:00:17;2.30;99.90
69533;DHT22;56729;52.036;5.332;2022-12-07T07:01:23;2.30;99.90
69533;DHT22;56729;52.036;5.332;2022-12-07T07:02:25;2.30;99.90
69533;DHT22;56729;52.036;5.332;2022-12-07T07:03:27;2.20;99.90
69533;DHT22;56729;52.036;5.332;2022-12-07T07:04:29;2.20;99.90
69533;DHT22;56729;52.036;5.332;2022-12-07T07:05:30;2.20;99.90
69533;DHT22;56729;52.036;5.332;2022-12-07T07:06:33;2.20;99.90
69533;DHT22;56729;52.036;5.332;2022-12-07T07:07:35;2.20;99.90
69533;DHT22;56729;52.036;5.332;2022-12-07T07:08:57;2.20;99.90
69533;DHT22;56729;52.036;5.332;2022-12-07T07:09:59;2.20;99.90
69533;DHT22;56729;52.036;5.332;2022-12-07T07:11:02;2.20;99.90
69533;DHT22;56729;52.036;5.332;2022-12-07T07:12:04;2.20;99.90
69533;DHT22;56729;52.036;5.332;2022-12-07T07:13:06;2.20;99.90
69533;DHT22;56729;52.036;5.332;2022-12-07T07:14:08;2.20;99.90
69533;DHT22;56729;52.036;5.332;2022-12-07T07:15:10;2.20;99.90
69533;DHT22;56729;52.036;5.332;2022-12-07T07:16:13;2.20;99.90
69533;DHT22;56729;52.036;5.332;2022-12-07T07:17:15;2.20;99.90
69533;DHT22;56729;52.036;5.332;2022-12-07T07:18:17;2.20;99.90
69533;DHT22;56729;52.036;5.332;2022-12-07T07:19:19;2.20;99.90
69533;DHT22;56729;52.036;5.332;2022-12-07T07:20:21;2.20;99.90
69533;DHT22;56729;52.036;5.332;2022-12-07T07:21:23;2.20;99.90